sensor_id;sensor_type;location;lat;lon;timestamp;P1;durP1;ratioP1;P2;durP2;ratioP2
16099;SDS011;8154;50.830;12.082;2024-03-08T00:00:03;4.60;;;2.30;;
16099;SDS011;8154;50.830;12.082;2024-03-08T00:02:41;4.60;;;2.45;;
16099;SDS011;8154;50.830;12.082;2024-03-08T00:05:08;4.75;;;2.45;;
16099;SDS011;8154;50.830;12.082;2024-03-08T00:07:38;4.43;;;2.30;;
16099;SDS011;8154;50.830;12.082;2024-03-08T00:10:05;4.35;;;2.20;;
16099;SDS011;8154;50.830;12.082;2024-03-08T00:12:33;4.20;;;2.30;;
16099;SDS011;8154;50.830;12.082;2024-03-08T00:14:59;4.45;;;2.33;;
16099;SDS011;8154;50.830;12.082;2024-03-08T00:17:25;4.20;;;2.30;;
16099;SDS011;8154;50.830;12.082;2024-03-08T00:19:52;4.88;;;2.50;;
16099;SDS011;8154;50.830;12.082;2024-03-08T00:22:21;4.03;;;2.20;;
16099;SDS011;8154;50.830;12.082;2024-03-08T00:24:50;4.73;;;2.23;;
16099;SDS011;8154;50.830;12.082;2024-03-08T00:27:19;4.93;;;2.60;;
16099;SDS011;8154;50.830;12.082;2024-03-08T00:29:47;4.53;;;2.40;;
16099;SDS011;8154;50.830;12.082;2024-03-08T00:32:13;4.22;;;2.25;;
16099;SDS011;8154;50.830;12.082;2024-03-08T00:34:39;4.53;;;2.25;;
16099;SDS011;8154;50.830;12.082;2024-03-08T00:37:05;4.10;;;2.13;;
16099;SDS011;8154;50.830;12.082;2024-03-08T00:39:31;4.35;;;2.28;;
16099;SDS011;8154;50.830;12.082;2024-03-08T00:42:17;4.97;;;2.60;;
16099;SDS011;8154;50.830;12.082;2024-03-08T00:44:49;4.85;;;2.30;;
16099;SDS011;8154;50.830;12.082;2024-03-08T00:47:17;5.03;;;2.17;;
16099;SDS011;8154;50.830;12.082;2024-03-08T00:49:43;3.90;;;2.27;;
16099;SDS011;8154;50.830;12.082;2024-03-08T00:52:11;4.72;;;2.40;;
16099;SDS011;8154;50.830;12.082;2024-03-08T00:54:37;4.40;;;2.30;;
16099;SDS011;8154;50.830;12.082;2024-03-08T00:57:04;4.90;;;2.40;;
16099;SDS011;8154;50.830;12.082;2024-03-08T00:59:30;4.60;;;2.33;;
16099;SDS011;8154;50.830;12.082;2024-03-08T01:02:15;4.63;;;2.47;;
16099;SDS011;8154;50.830;12.082;2024-03-08T01:04:49;4.40;;;2.22;;
16099;SDS011;8154;50.830;12.082;2024-03-08T01:07:18;4.22;;;2.40;;
16099;SDS011;8154;50.830;12.082;2024-03-08T01:09:47;4.38;;;2.30;;
16099;SDS011;8154;50.830;12.082;2024-03-08T01:12:16;4.05;;;2.20;;
16099;SDS011;8154;50.830;12.082;2024-03-08T01:14:42;4.30;;;2.30;;
16099;SDS011;8154;50.830;12.082;2024-03-08T01:17:08;3.80;;;2.00;;
16099;SDS011;8154;50.830;12.082;2024-03-08T01:19:35;4.80;;;2.38;;
16099;SDS011;8154;50.830;12.082;2024-03-08T01:22:01;4.60;;;2.50;;
16099;SDS011;8154;50.830;12.082;2024-03-08T01:24:28;4.00;;;2.20;;
16099;SDS011;8154;50.830;12.082;2024-03-08T01:26:54;4.43;;;2.30;;
16099;SDS011;8154;50.830;12.082;2024-03-08T01:29:23;4.25;;;1.95;;
16099;SDS011;8154;50.830;12.082;2024-03-08T01:31:50;4.28;;;2.20;;
16099;SDS011;8154;50.830;12.082;2024-03-08T01:34:20;4.43;;;2.25;;
16099;SDS011;8154;50.830;12.082;2024-03-08T01:36:46;4.07;;;2.25;;
16099;SDS011;8154;50.830;12.082;2024-03-08T01:39:12;3.93;;;2.20;;
16099;SDS011;8154;50.830;12.082;2024-03-08T01:41:38;4.20;;;2.10;;
16099;SDS011;8154;50.830;12.082;2024-03-08T01:44:05;4.10;;;2.20;;
16099;SDS011;8154;50.830;12.082;2024-03-08T01:46:34;3.83;;;1.98;;
16099;SDS011;8154;50.830;12.082;2024-03-08T01:49:03;4.60;;;2.40;;
16099;SDS011;8154;50.830;12.082;2024-03-08T01:51:32;4.00;;;2.07;;
16099;SDS011;8154;50.830;12.082;2024-03-08T01:54:01;4.60;;;2.40;;
16099;SDS011;8154;50.830;12.082;2024-03-08T01:56:32;4.65;;;2.20;;
16099;SDS011;8154;50.830;12.082;2024-03-08T01:58:59;4.40;;;2.20;;
16099;SDS011;8154;50.830;12.082;2024-03-08T02:01:25;4.38;;;2.25;;
16099;SDS011;8154;50.830;12.082;2024-03-08T02:03:51;4.80;;;2.13;;
16099;SDS011;8154;50.830;12.082;2024-03-08T02:06:17;3.85;;;2.00;;
16099;SDS011;8154;50.830;12.082;2024-03-08T02:08:43;4.25;;;2.30;;
16099;SDS011;8154;50.830;12.082;2024-03-08T02:11:13;4.57;;;2.28;;
16099;SDS011;8154;50.830;12.082;2024-03-08T02:13:42;4.30;;;2.22;;
16099;SDS011;8154;50.830;12.082;2024-03-08T02:16:12;4.80;;;2.10;;
16099;SDS011;8154;50.830;12.082;2024-03-08T02:18:40;4.40;;;2.30;;
16099;SDS011;8154;50.830;12.082;2024-03-08T02:21:07;4.60;;;2.35;;
16099;SDS011;8154;50.830;12.082;2024-03-08T02:23:34;4.00;;;2.20;;
16099;SDS011;8154;50.830;12.082;2024-03-08T02:26:00;4.43;;;2.30;;
16099;SDS011;8154;50.830;12.082;2024-03-08T02:28:26;4.40;;;2.17;;
16099;SDS011;8154;50.830;12.082;2024-03-08T02:30:53;4.13;;;2.20;;
16099;SDS011;8154;50.830;12.082;2024-03-08T02:33:24;4.03;;;2.10;;
16099;SDS011;8154;50.830;12.082;2024-03-08T02:35:53;3.70;;;2.15;;
16099;SDS011;8154;50.830;12.082;2024-03-08T02:38:22;4.35;;;2.10;;
16099;SDS011;8154;50.830;12.082;2024-03-08T02:40:53;3.73;;;1.90;;
16099;SDS011;8154;50.830;12.082;2024-03-08T02:43:20;3.90;;;2.05;;
16099;SDS011;8154;50.830;12.082;2024-03-08T02:45:50;4.22;;;2.20;;
16099;SDS011;8154;50.830;12.082;2024-03-08T02:48:18;4.43;;;2.38;;
16099;SDS011;8154;50.830;12.082;2024-03-08T02:50:44;4.28;;;2.17;;
16099;SDS011;8154;50.830;12.082;2024-03-08T02:53:29;3.80;;;1.90;;
16099;SDS011;8154;50.830;12.082;2024-03-08T02:55:57;4.13;;;2.00;;
16099;SDS011;8154;50.830;12.082;2024-03-08T02:58:26;4.22;;;2.22;;
16099;SDS011;8154;50.830;12.082;2024-03-08T03:00:55;4.28;;;2.17;;
16099;SDS011;8154;50.830;12.082;2024-03-08T03:03:25;3.83;;;2.28;;
16099;SDS011;8154;50.830;12.082;2024-03-08T03:06:13;3.70;;;2.03;;
16099;SDS011;8154;50.830;12.082;2024-03-08T03:08:39;4.28;;;2.20;;
16099;SDS011;8154;50.830;12.082;2024-03-08T03:11:09;3.97;;;1.92;;
16099;SDS011;8154;50.830;12.082;2024-03-08T03:13:35;4.13;;;2.10;;
16099;SDS011;8154;50.830;12.082;2024-03-08T03:16:02;4.50;;;2.17;;
16099;SDS011;8154;50.830;12.082;2024-03-08T03:18:29;4.27;;;2.00;;
16099;SDS011;8154;50.830;12.082;2024-03-08T03:20:58;3.97;;;2.08;;
16099;SDS011;8154;50.830;12.082;2024-03-08T03:23:27;3.92;;;2.00;;
16099;SDS011;8154;50.830;12.082;2024-03-08T03:25:53;3.67;;;2.00;;
16099;SDS011;8154;50.830;12.082;2024-03-08T03:28:40;3.80;;;2.20;;
16099;SDS011;8154;50.830;12.082;2024-03-08T03:31:07;4.77;;;2.30;;
16099;SDS011;8154;50.830;12.082;2024-03-08T03:33:50;3.85;;;2.00;;
16099;SDS011;8154;50.830;12.082;2024-03-08T03:36:17;3.47;;;1.90;;
16099;SDS011;8154;50.830;12.082;2024-03-08T03:38:44;4.72;;;2.00;;
16099;SDS011;8154;50.830;12.082;2024-03-08T03:41:13;4.28;;;2.20;;
16099;SDS011;8154;50.830;12.082;2024-03-08T03:43:40;3.77;;;1.90;;
16099;SDS011;8154;50.830;12.082;2024-03-08T03:46:09;4.30;;;2.00;;
16099;SDS011;8154;50.830;12.082;2024-03-08T03:48:36;3.45;;;1.77;;
16099;SDS011;8154;50.830;12.082;2024-03-08T03:51:02;4.00;;;2.00;;
16099;SDS011;8154;50.830;12.082;2024-03-08T03:53:29;3.72;;;1.85;;
16099;SDS011;8154;50.830;12.082;2024-03-08T03:55:55;4.00;;;2.00;;
16099;SDS011;8154;50.830;12.082;2024-03-08T03:58:41;3.90;;;2.00;;
16099;SDS011;8154;50.830;12.082;2024-03-08T04:01:10;4.18;;;2.20;;
16099;SDS011;8154;50.830;12.082;2024-03-08T04:03:40;4.30;;;2.20;;
16099;SDS011;8154;50.830;12.082;2024-03-08T04:06:09;3.88;;;1.90;;
16099;SDS011;8154;50.830;12.082;2024-03-08T04:08:36;4.30;;;2.20;;
16099;SDS011;8154;50.830;12.082;2024-03-08T04:11:02;4.38;;;2.10;;
16099;SDS011;8154;50.830;12.082;2024-03-08T04:13:29;3.55;;;1.80;;
16099;SDS011;8154;50.830;12.082;2024-03-08T04:15:55;4.32;;;2.03;;
16099;SDS011;8154;50.830;12.082;2024-03-08T04:18:21;4.10;;;2.13;;
16099;SDS011;8154;50.830;12.082;2024-03-08T04:20:47;4.03;;;2.00;;
16099;SDS011;8154;50.830;12.082;2024-03-08T04:23:14;3.97;;;2.00;;
16099;SDS011;8154;50.830;12.082;2024-03-08T04:25:42;3.80;;;2.00;;
16099;SDS011;8154;50.830;12.082;2024-03-08T04:28:11;3.55;;;1.80;;
16099;SDS011;8154;50.830;12.082;2024-03-08T04:30:38;3.97;;;2.00;;
16099;SDS011;8154;50.830;12.082;2024-03-08T04:33:07;3.73;;;1.93;;
16099;SDS011;8154;50.830;12.082;2024-03-08T04:35:34;3.45;;;1.90;;
16099;SDS011;8154;50.830;12.082;2024-03-08T04:38:00;3.92;;;1.90;;
16099;SDS011;8154;50.830;12.082;2024-03-08T04:40:26;4.25;;;2.10;;
16099;SDS011;8154;50.830;12.082;2024-03-08T04:42:55;4.75;;;2.20;;
16099;SDS011;8154;50.830;12.082;2024-03-08T04:45:24;4.20;;;2.07;;
16099;SDS011;8154;50.830;12.082;2024-03-08T04:47:52;4.32;;;2.25;;
16099;SDS011;8154;50.830;12.082;2024-03-08T04:50:21;3.95;;;2.13;;
16099;SDS011;8154;50.830;12.082;2024-03-08T04:52:47;4.90;;;2.30;;
16099;SDS011;8154;50.830;12.082;2024-03-08T04:55:13;3.67;;;1.90;;
16099;SDS011;8154;50.830;12.082;2024-03-08T04:57:39;3.90;;;2.20;;
16099;SDS011;8154;50.830;12.082;2024-03-08T05:00:07;3.90;;;1.90;;
16099;SDS011;8154;50.830;12.082;2024-03-08T05:02:37;4.13;;;2.20;;
16099;SDS011;8154;50.830;12.082;2024-03-08T05:05:08;3.47;;;1.70;;
16099;SDS011;8154;50.830;12.082;2024-03-08T05:07:39;3.88;;;1.95;;
16099;SDS011;8154;50.830;12.082;2024-03-08T05:10:08;3.77;;;2.23;;
16099;SDS011;8154;50.830;12.082;2024-03-08T05:12:36;3.92;;;1.92;;
16099;SDS011;8154;50.830;12.082;2024-03-08T05:15:04;4.38;;;2.20;;
16099;SDS011;8154;50.830;12.082;2024-03-08T05:17:33;4.18;;;2.20;;
16099;SDS011;8154;50.830;12.082;2024-03-08T05:19:58;4.30;;;2.00;;
16099;SDS011;8154;50.830;12.082;2024-03-08T05:22:25;3.40;;;1.87;;
16099;SDS011;8154;50.830;12.082;2024-03-08T05:24:52;4.18;;;2.10;;
16099;SDS011;8154;50.830;12.082;2024-03-08T05:27:21;4.13;;;2.10;;
16099;SDS011;8154;50.830;12.082;2024-03-08T05:29:50;3.67;;;2.00;;
16099;SDS011;8154;50.830;12.082;2024-03-08T05:32:19;3.88;;;2.10;;
16099;SDS011;8154;50.830;12.082;2024-03-08T05:34:48;4.60;;;2.20;;
16099;SDS011;8154;50.830;12.082;2024-03-08T05:37:14;4.43;;;2.30;;
16099;SDS011;8154;50.830;12.082;2024-03-08T05:39:42;4.65;;;2.33;;
16099;SDS011;8154;50.830;12.082;2024-03-08T05:42:08;4.57;;;2.30;;
16099;SDS011;8154;50.830;12.082;2024-03-08T05:44:34;4.28;;;2.10;;
16099;SDS011;8154;50.830;12.082;2024-03-08T05:47:00;4.70;;;2.50;;
16099;SDS011;8154;50.830;12.082;2024-03-08T05:49:28;5.00;;;2.50;;
16099;SDS011;8154;50.830;12.082;2024-03-08T05:51:55;4.72;;;2.47;;
16099;SDS011;8154;50.830;12.082;2024-03-08T05:54:23;4.25;;;2.33;;
16099;SDS011;8154;50.830;12.082;2024-03-08T05:56:49;4.80;;;2.63;;
16099;SDS011;8154;50.830;12.082;2024-03-08T05:59:19;5.07;;;2.70;;
16099;SDS011;8154;50.830;12.082;2024-03-08T06:01:46;5.20;;;3.00;;
16099;SDS011;8154;50.830;12.082;2024-03-08T06:04:13;5.40;;;2.90;;
16099;SDS011;8154;50.830;12.082;2024-03-08T06:06:40;5.45;;;2.80;;
16099;SDS011;8154;50.830;12.082;2024-03-08T06:09:06;5.30;;;2.90;;
16099;SDS011;8154;50.830;12.082;2024-03-08T06:11:37;5.77;;;3.03;;
16099;SDS011;8154;50.830;12.082;2024-03-08T06:14:05;5.50;;;3.10;;
16099;SDS011;8154;50.830;12.082;2024-03-08T06:16:34;5.63;;;3.40;;
16099;SDS011;8154;50.830;12.082;2024-03-08T06:19:04;6.00;;;3.50;;
16099;SDS011;8154;50.830;12.082;2024-03-08T06:21:31;6.45;;;3.60;;
16099;SDS011;8154;50.830;12.082;2024-03-08T06:23:57;6.57;;;3.53;;
16099;SDS011;8154;50.830;12.082;2024-03-08T06:26:24;6.53;;;3.55;;
16099;SDS011;8154;50.830;12.082;2024-03-08T06:28:50;6.90;;;3.90;;
16099;SDS011;8154;50.830;12.082;2024-03-08T06:31:36;6.38;;;3.50;;
16099;SDS011;8154;50.830;12.082;2024-03-08T06:34:07;6.50;;;3.83;;
16099;SDS011;8154;50.830;12.082;2024-03-08T06:36:36;6.67;;;3.80;;
16099;SDS011;8154;50.830;12.082;2024-03-08T06:39:07;6.38;;;3.40;;
16099;SDS011;8154;50.830;12.082;2024-03-08T06:41:38;6.15;;;3.40;;
16099;SDS011;8154;50.830;12.082;2024-03-08T06:44:04;6.20;;;3.40;;
16099;SDS011;8154;50.830;12.082;2024-03-08T06:46:30;6.57;;;3.80;;
16099;SDS011;8154;50.830;12.082;2024-03-08T06:48:56;6.57;;;3.80;;
16099;SDS011;8154;50.830;12.082;2024-03-08T06:51:22;6.18;;;3.70;;
16099;SDS011;8154;50.830;12.082;2024-03-08T06:53:52;6.60;;;3.65;;
16099;SDS011;8154;50.830;12.082;2024-03-08T06:56:21;7.55;;;3.70;;
16099;SDS011;8154;50.830;12.082;2024-03-08T06:58:51;6.75;;;3.60;;
16099;SDS011;8154;50.830;12.082;2024-03-08T07:01:20;7.43;;;3.63;;
16099;SDS011;8154;50.830;12.082;2024-03-08T07:03:49;6.63;;;3.63;;
16099;SDS011;8154;50.830;12.082;2024-03-08T07:06:15;5.78;;;3.30;;
16099;SDS011;8154;50.830;12.082;2024-03-08T07:08:44;6.47;;;3.60;;
16099;SDS011;8154;50.830;12.082;2024-03-08T07:11:11;6.50;;;3.58;;
16099;SDS011;8154;50.830;12.082;2024-03-08T07:13:37;6.20;;;3.57;;
16099;SDS011;8154;50.830;12.082;2024-03-08T07:16:10;5.95;;;3.42;;
16099;SDS011;8154;50.830;12.082;2024-03-08T07:18:40;6.15;;;3.60;;
16099;SDS011;8154;50.830;12.082;2024-03-08T07:21:11;5.57;;;3.20;;
16099;SDS011;8154;50.830;12.082;2024-03-08T07:23:39;6.10;;;3.30;;
16099;SDS011;8154;50.830;12.082;2024-03-08T07:26:24;5.70;;;3.60;;
16099;SDS011;8154;50.830;12.082;2024-03-08T07:28:49;5.60;;;2.97;;
16099;SDS011;8154;50.830;12.082;2024-03-08T07:31:16;6.50;;;3.40;;
16099;SDS011;8154;50.830;12.082;2024-03-08T07:33:42;5.57;;;3.20;;
16099;SDS011;8154;50.830;12.082;2024-03-08T07:36:08;5.80;;;3.17;;
16099;SDS011;8154;50.830;12.082;2024-03-08T07:38:37;6.23;;;3.50;;
16099;SDS011;8154;50.830;12.082;2024-03-08T07:41:06;6.07;;;3.45;;
16099;SDS011;8154;50.830;12.082;2024-03-08T07:43:35;6.40;;;3.40;;
16099;SDS011;8154;50.830;12.082;2024-03-08T07:46:02;6.00;;;3.40;;
16099;SDS011;8154;50.830;12.082;2024-03-08T07:48:28;5.78;;;3.30;;
16099;SDS011;8154;50.830;12.082;2024-03-08T07:50:56;5.80;;;3.00;;
16099;SDS011;8154;50.830;12.082;2024-03-08T07:53:22;6.03;;;3.30;;
16099;SDS011;8154;50.830;12.082;2024-03-08T07:56:10;5.78;;;3.22;;
16099;SDS011;8154;50.830;12.082;2024-03-08T07:58:58;4.90;;;3.00;;
16099;SDS011;8154;50.830;12.082;2024-03-08T08:01:27;5.50;;;3.00;;
16099;SDS011;8154;50.830;12.082;2024-03-08T08:03:56;5.97;;;3.30;;
16099;SDS011;8154;50.830;12.082;2024-03-08T08:06:22;5.47;;;3.08;;
16099;SDS011;8154;50.830;12.082;2024-03-08T08:08:51;6.13;;;3.47;;
16099;SDS011;8154;50.830;12.082;2024-03-08T08:11:18;5.22;;;2.92;;
16099;SDS011;8154;50.830;12.082;2024-03-08T08:13:44;5.85;;;3.00;;
16099;SDS011;8154;50.830;12.082;2024-03-08T08:16:11;6.10;;;3.37;;
16099;SDS011;8154;50.830;12.082;2024-03-08T08:18:38;5.85;;;3.20;;
16099;SDS011;8154;50.830;12.082;2024-03-08T08:21:24;5.80;;;2.90;;
16099;SDS011;8154;50.830;12.082;2024-03-08T08:23:52;5.57;;;3.13;;
16099;SDS011;8154;50.830;12.082;2024-03-08T08:26:21;5.57;;;3.10;;
16099;SDS011;8154;50.830;12.082;2024-03-08T08:28:47;5.50;;;3.20;;
16099;SDS011;8154;50.830;12.082;2024-03-08T08:31:16;5.63;;;3.03;;
16099;SDS011;8154;50.830;12.082;2024-03-08T08:33:43;5.50;;;3.03;;
16099;SDS011;8154;50.830;12.082;2024-03-08T08:36:10;5.55;;;3.20;;
16099;SDS011;8154;50.830;12.082;2024-03-08T08:38:36;5.80;;;3.15;;
16099;SDS011;8154;50.830;12.082;2024-03-08T08:41:03;5.93;;;2.97;;
16099;SDS011;8154;50.830;12.082;2024-03-08T08:43:32;5.40;;;3.10;;
16099;SDS011;8154;50.830;12.082;2024-03-08T08:46:02;5.38;;;2.90;;
16099;SDS011;8154;50.830;12.082;2024-03-08T08:48:31;5.10;;;2.90;;
16099;SDS011;8154;50.830;12.082;2024-03-08T08:51:00;4.90;;;2.80;;
16099;SDS011;8154;50.830;12.082;2024-03-08T08:53:26;5.53;;;3.13;;
16099;SDS011;8154;50.830;12.082;2024-03-08T08:55:52;6.25;;;3.20;;
16099;SDS011;8154;50.830;12.082;2024-03-08T08:58:19;5.55;;;2.90;;
16099;SDS011;8154;50.830;12.082;2024-03-08T09:00:45;5.65;;;3.15;;
16099;SDS011;8154;50.830;12.082;2024-03-08T09:03:11;5.18;;;3.00;;
16099;SDS011;8154;50.830;12.082;2024-03-08T09:05:40;5.53;;;2.90;;
16099;SDS011;8154;50.830;12.082;2024-03-08T09:08:09;5.32;;;2.85;;
16099;SDS011;8154;50.830;12.082;2024-03-08T09:10:37;5.38;;;2.97;;
16099;SDS011;8154;50.830;12.082;2024-03-08T09:13:07;5.43;;;3.03;;
16099;SDS011;8154;50.830;12.082;2024-03-08T09:15:35;5.50;;;2.70;;
16099;SDS011;8154;50.830;12.082;2024-03-08T09:18:02;5.07;;;2.50;;
16099;SDS011;8154;50.830;12.082;2024-03-08T09:20:28;5.70;;;2.90;;
16099;SDS011;8154;50.830;12.082;2024-03-08T09:22:58;5.10;;;2.70;;
16099;SDS011;8154;50.830;12.082;2024-03-08T09:25:24;5.30;;;2.90;;
16099;SDS011;8154;50.830;12.082;2024-03-08T09:27:54;5.03;;;2.70;;
16099;SDS011;8154;50.830;12.082;2024-03-08T09:30:23;5.60;;;2.90;;
16099;SDS011;8154;50.830;12.082;2024-03-08T09:32:52;5.50;;;3.25;;
16099;SDS011;8154;50.830;12.082;2024-03-08T09:35:21;5.65;;;2.90;;
16099;SDS011;8154;50.830;12.082;2024-03-08T09:37:47;5.07;;;2.90;;
16099;SDS011;8154;50.830;12.082;2024-03-08T09:40:17;5.60;;;3.10;;
16099;SDS011;8154;50.830;12.082;2024-03-08T09:42:47;5.63;;;3.43;;
16099;SDS011;8154;50.830;12.082;2024-03-08T09:45:14;5.50;;;3.00;;
16099;SDS011;8154;50.830;12.082;2024-03-08T09:47:43;5.35;;;3.00;;
16099;SDS011;8154;50.830;12.082;2024-03-08T09:50:11;5.82;;;3.30;;
16099;SDS011;8154;50.830;12.082;2024-03-08T09:52:47;5.40;;;3.00;;
16099;SDS011;8154;50.830;12.082;2024-03-08T09:55:17;5.50;;;3.20;;
16099;SDS011;8154;50.830;12.082;2024-03-08T09:57:47;5.30;;;3.00;;
16099;SDS011;8154;50.830;12.082;2024-03-08T10:00:34;5.70;;;3.10;;
16099;SDS011;8154;50.830;12.082;2024-03-08T10:03:01;5.63;;;3.30;;
16099;SDS011;8154;50.830;12.082;2024-03-08T10:05:30;5.75;;;3.22;;
16099;SDS011;8154;50.830;12.082;2024-03-08T10:07:58;5.77;;;3.33;;
16099;SDS011;8154;50.830;12.082;2024-03-08T10:10:39;5.72;;;3.20;;
16099;SDS011;8154;50.830;12.082;2024-03-08T10:13:08;5.05;;;2.80;;
16099;SDS011;8154;50.830;12.082;2024-03-08T10:15:41;5.05;;;2.75;;
16099;SDS011;8154;50.830;12.082;2024-03-08T10:18:10;5.68;;;3.08;;
16099;SDS011;8154;50.830;12.082;2024-03-08T10:20:38;5.60;;;3.40;;
16099;SDS011;8154;50.830;12.082;2024-03-08T10:23:04;5.53;;;3.33;;
16099;SDS011;8154;50.830;12.082;2024-03-08T10:25:32;5.47;;;3.20;;
16099;SDS011;8154;50.830;12.082;2024-03-08T10:27:58;5.70;;;3.05;;
16099;SDS011;8154;50.830;12.082;2024-03-08T10:30:25;5.85;;;3.40;;
16099;SDS011;8154;50.830;12.082;2024-03-08T10:32:54;6.10;;;3.40;;
16099;SDS011;8154;50.830;12.082;2024-03-08T10:35:23;5.35;;;3.20;;
16099;SDS011;8154;50.830;12.082;2024-03-08T10:37:52;5.50;;;3.03;;
16099;SDS011;8154;50.830;12.082;2024-03-08T10:40:26;5.45;;;3.25;;
16099;SDS011;8154;50.830;12.082;2024-03-08T10:42:57;5.32;;;3.13;;
16099;SDS011;8154;50.830;12.082;2024-03-08T10:45:31;5.90;;;3.20;;
16099;SDS011;8154;50.830;12.082;2024-03-08T10:48:21;5.82;;;3.30;;
16099;SDS011;8154;50.830;12.082;2024-03-08T10:50:58;5.95;;;3.70;;
16099;SDS011;8154;50.830;12.082;2024-03-08T10:53:47;5.70;;;3.15;;
16099;SDS011;8154;50.830;12.082;2024-03-08T10:56:15;6.15;;;3.42;;
16099;SDS011;8154;50.830;12.082;2024-03-08T10:58:45;5.63;;;3.40;;
16099;SDS011;8154;50.830;12.082;2024-03-08T11:01:13;5.95;;;3.35;;
16099;SDS011;8154;50.830;12.082;2024-03-08T11:06:21;6.95;;;4.30;;
16099;SDS011;8154;50.830;12.082;2024-03-08T11:14:46;7.00;;;4.28;;
16099;SDS011;8154;50.830;12.082;2024-03-08T11:17:26;7.07;;;4.15;;
16099;SDS011;8154;50.830;12.082;2024-03-08T11:20:01;6.70;;;4.25;;
16099;SDS011;8154;50.830;12.082;2024-03-08T11:22:34;7.68;;;4.50;;
16099;SDS011;8154;50.830;12.082;2024-03-08T11:25:01;6.57;;;4.13;;
16099;SDS011;8154;50.830;12.082;2024-03-08T11:27:29;6.65;;;4.10;;
16099;SDS011;8154;50.830;12.082;2024-03-08T11:30:01;6.97;;;4.57;;
16099;SDS011;8154;50.830;12.082;2024-03-08T11:32:38;6.97;;;4.18;;
16099;SDS011;8154;50.830;12.082;2024-03-08T11:35:10;6.32;;;4.22;;
16099;SDS011;8154;50.830;12.082;2024-03-08T11:37:49;6.87;;;4.40;;
16099;SDS011;8154;50.830;12.082;2024-03-08T11:40:19;6.85;;;4.32;;
16099;SDS011;8154;50.830;12.082;2024-03-08T11:42:49;6.60;;;4.25;;
16099;SDS011;8154;50.830;12.082;2024-03-08T11:45:18;6.68;;;4.13;;
16099;SDS011;8154;50.830;12.082;2024-03-08T11:47:49;7.75;;;4.38;;
16099;SDS011;8154;50.830;12.082;2024-03-08T11:50:16;7.27;;;4.07;;
16099;SDS011;8154;50.830;12.082;2024-03-08T11:52:45;7.78;;;4.20;;
16099;SDS011;8154;50.830;12.082;2024-03-08T11:55:11;6.90;;;4.20;;
16099;SDS011;8154;50.830;12.082;2024-03-08T11:57:38;6.72;;;4.35;;
16099;SDS011;8154;50.830;12.082;2024-03-08T12:00:06;7.40;;;4.32;;
16099;SDS011;8154;50.830;12.082;2024-03-08T12:03:02;7.20;;;4.43;;
16099;SDS011;8154;50.830;12.082;2024-03-08T12:05:32;7.13;;;4.13;;
16099;SDS011;8154;50.830;12.082;2024-03-08T12:08:04;6.80;;;4.30;;
16099;SDS011;8154;50.830;12.082;2024-03-08T12:10:35;7.43;;;4.40;;
16099;SDS011;8154;50.830;12.082;2024-03-08T12:13:01;6.40;;;3.83;;
16099;SDS011;8154;50.830;12.082;2024-03-08T12:15:32;7.40;;;4.27;;
16099;SDS011;8154;50.830;12.082;2024-03-08T12:18:00;6.18;;;3.83;;
16099;SDS011;8154;50.830;12.082;2024-03-08T12:20:26;6.75;;;4.18;;
16099;SDS011;8154;50.830;12.082;2024-03-08T12:22:58;7.43;;;4.40;;
16099;SDS011;8154;50.830;12.082;2024-03-08T12:25:31;6.57;;;4.10;;
16099;SDS011;8154;50.830;12.082;2024-03-08T12:28:09;7.07;;;4.50;;
16099;SDS011;8154;50.830;12.082;2024-03-08T12:30:48;6.38;;;4.00;;
16099;SDS011;8154;50.830;12.082;2024-03-08T12:33:22;6.07;;;3.83;;
16099;SDS011;8154;50.830;12.082;2024-03-08T12:35:52;6.20;;;3.70;;
16099;SDS011;8154;50.830;12.082;2024-03-08T12:38:20;6.05;;;3.88;;
16099;SDS011;8154;50.830;12.082;2024-03-08T12:40:50;6.77;;;4.10;;
16099;SDS011;8154;50.830;12.082;2024-03-08T12:43:23;6.43;;;4.00;;
16099;SDS011;8154;50.830;12.082;2024-03-08T12:45:49;6.68;;;3.92;;
16099;SDS011;8154;50.830;12.082;2024-03-08T12:48:17;6.55;;;3.97;;
16099;SDS011;8154;50.830;12.082;2024-03-08T12:50:46;6.70;;;4.00;;
16099;SDS011;8154;50.830;12.082;2024-03-08T12:53:16;6.40;;;3.80;;
16099;SDS011;8154;50.830;12.082;2024-03-08T12:55:42;6.68;;;3.95;;
16099;SDS011;8154;50.830;12.082;2024-03-08T12:58:08;6.43;;;3.85;;
16099;SDS011;8154;50.830;12.082;2024-03-08T13:00:35;6.60;;;4.00;;
16099;SDS011;8154;50.830;12.082;2024-03-08T13:03:08;7.20;;;4.20;;
16099;SDS011;8154;50.830;12.082;2024-03-08T13:05:39;6.33;;;3.80;;
16099;SDS011;8154;50.830;12.082;2024-03-08T13:08:07;6.30;;;4.00;;
16099;SDS011;8154;50.830;12.082;2024-03-08T13:10:41;5.93;;;3.60;;
16099;SDS011;8154;50.830;12.082;2024-03-08T13:13:11;5.82;;;3.40;;
16099;SDS011;8154;50.830;12.082;2024-03-08T13:15:41;7.00;;;4.00;;
16099;SDS011;8154;50.830;12.082;2024-03-08T13:18:08;5.77;;;3.63;;
16099;SDS011;8154;50.830;12.082;2024-03-08T13:20:35;7.18;;;4.00;;
16099;SDS011;8154;50.830;12.082;2024-03-08T13:23:04;6.00;;;3.70;;
16099;SDS011;8154;50.830;12.082;2024-03-08T13:25:31;5.57;;;3.00;;
16099;SDS011;8154;50.830;12.082;2024-03-08T13:27:59;6.20;;;3.70;;
16099;SDS011;8154;50.830;12.082;2024-03-08T13:30:29;6.40;;;3.90;;
16099;SDS011;8154;50.830;12.082;2024-03-08T13:32:59;6.65;;;3.72;;
16099;SDS011;8154;50.830;12.082;2024-03-08T13:35:26;6.63;;;3.78;;
16099;SDS011;8154;50.830;12.082;2024-03-08T13:37:53;6.25;;;3.85;;
16099;SDS011;8154;50.830;12.082;2024-03-08T13:40:20;6.25;;;3.63;;
16099;SDS011;8154;50.830;12.082;2024-03-08T13:42:47;6.90;;;3.70;;
16099;SDS011;8154;50.830;12.082;2024-03-08T13:45:17;5.60;;;3.45;;
16099;SDS011;8154;50.830;12.082;2024-03-08T13:47:49;6.55;;;3.63;;
16099;SDS011;8154;50.830;12.082;2024-03-08T13:50:22;5.90;;;3.60;;
16099;SDS011;8154;50.830;12.082;2024-03-08T13:52:54;6.10;;;3.72;;
16099;SDS011;8154;50.830;12.082;2024-03-08T13:55:23;6.43;;;3.73;;
16099;SDS011;8154;50.830;12.082;2024-03-08T13:57:55;5.88;;;3.50;;
16099;SDS011;8154;50.830;12.082;2024-03-08T14:00:22;6.25;;;3.65;;
16099;SDS011;8154;50.830;12.082;2024-03-08T14:02:52;7.03;;;4.10;;
16099;SDS011;8154;50.830;12.082;2024-03-08T14:05:19;6.32;;;3.65;;
16099;SDS011;8154;50.830;12.082;2024-03-08T14:07:46;6.60;;;3.80;;
16099;SDS011;8154;50.830;12.082;2024-03-08T14:10:34;6.47;;;3.60;;
16099;SDS011;8154;50.830;12.082;2024-03-08T14:13:05;6.18;;;3.42;;
16099;SDS011;8154;50.830;12.082;2024-03-08T14:15:35;5.43;;;3.00;;
16099;SDS011;8154;50.830;12.082;2024-03-08T14:18:04;5.50;;;3.60;;
16099;SDS011;8154;50.830;12.082;2024-03-08T14:20:33;6.60;;;3.67;;
16099;SDS011;8154;50.830;12.082;2024-03-08T14:22:59;6.07;;;3.53;;
16099;SDS011;8154;50.830;12.082;2024-03-08T14:25:25;6.30;;;3.60;;
16099;SDS011;8154;50.830;12.082;2024-03-08T14:27:52;5.97;;;3.53;;
16099;SDS011;8154;50.830;12.082;2024-03-08T14:30:22;6.00;;;3.70;;
16099;SDS011;8154;50.830;12.082;2024-03-08T14:33:14;5.43;;;3.00;;
16099;SDS011;8154;50.830;12.082;2024-03-08T14:35:44;6.53;;;3.50;;
16099;SDS011;8154;50.830;12.082;2024-03-08T14:38:16;5.80;;;3.13;;
16099;SDS011;8154;50.830;12.082;2024-03-08T14:40:43;5.57;;;3.13;;
16099;SDS011;8154;50.830;12.082;2024-03-08T14:43:12;5.72;;;3.13;;
16099;SDS011;8154;50.830;12.082;2024-03-08T14:45:42;6.00;;;3.10;;
16099;SDS011;8154;50.830;12.082;2024-03-08T14:48:08;6.35;;;3.53;;
16099;SDS011;8154;50.830;12.082;2024-03-08T14:50:37;5.88;;;3.33;;
16099;SDS011;8154;50.830;12.082;2024-03-08T14:53:03;5.88;;;3.20;;
16099;SDS011;8154;50.830;12.082;2024-03-08T14:55:34;5.63;;;3.40;;
16099;SDS011;8154;50.830;12.082;2024-03-08T14:58:02;5.63;;;3.13;;
16099;SDS011;8154;50.830;12.082;2024-03-08T15:00:32;5.80;;;3.17;;
16099;SDS011;8154;50.830;12.082;2024-03-08T15:03:03;6.22;;;3.30;;
16099;SDS011;8154;50.830;12.082;2024-03-08T15:05:31;5.80;;;3.28;;
16099;SDS011;8154;50.830;12.082;2024-03-08T15:07:58;6.00;;;3.35;;